createdAt,value
2019-04-25T00:00:48.508Z,100194.78
2019-04-25T00:03:18.719Z,100210.36
2019-04-25T00:05:47.126Z,100210.92
2019-04-25T00:08:15.755Z,100217.14
2019-04-25T00:10:44.211Z,100211.61
2019-04-25T00:13:13.101Z,100229.14
2019-04-25T00:15:41.943Z,100235.53
2019-04-25T00:18:12.003Z,100231.84
2019-04-25T00:20:43.390Z,100227.77
2019-04-25T00:23:16.273Z,100237.73
2019-04-25T00:25:47.897Z,100237.53
2019-04-25T00:28:16.997Z,100236.30
2019-04-25T00:30:46.077Z,100221.73
2019-04-25T00:33:14.637Z,100222.86
2019-04-25T00:35:44.624Z,100229.44
2019-04-25T00:38:14.951Z,100243.38
2019-04-25T00:40:43.948Z,100240.23
2019-04-25T00:43:13.109Z,100232.33
2019-04-25T00:45:42.471Z,100226.97
2019-04-25T00:48:12.272Z,100233.13
2019-04-25T00:50:42.450Z,100239.46
2019-04-25T00:53:11.369Z,100241.04
2019-04-25T00:55:41.402Z,100238.53
2019-04-25T00:58:11.709Z,100241.23
2019-04-25T01:00:51.124Z,100242.85
2019-04-25T01:03:21.554Z,100244.32
2019-04-25T01:05:49.931Z,100240.87
2019-04-25T01:08:18.629Z,100241.63
2019-04-25T01:10:47.918Z,100243.72
2019-04-25T01:13:16.460Z,100239.00
2019-04-25T01:15:44.961Z,100240.00
2019-04-25T01:18:13.622Z,100258.73
2019-04-25T01:20:43.422Z,100260.61
2019-04-25T01:23:11.901Z,100273.75
2019-04-25T01:25:42.677Z,100268.24
2019-04-25T01:28:10.426Z,100272.86
2019-04-25T01:30:39.131Z,100276.74
2019-04-25T01:33:07.953Z,100268.63
2019-04-25T01:35:38.390Z,100265.62
2019-04-25T01:38:27.009Z,100265.17
2019-04-25T01:41:00.135Z,100262.74
2019-04-25T01:43:36.171Z,100247.92
2019-04-25T01:46:04.782Z,100258.70
2019-04-25T01:48:33.567Z,100261.16
2019-04-25T01:51:01.999Z,100271.23
2019-04-25T01:53:30.398Z,100270.79
2019-04-25T01:56:04.112Z,100273.59
2019-04-25T01:58:30.071Z,100266.75
2019-04-25T02:00:58.645Z,100269.67
2019-04-25T02:03:27.409Z,100264.43
2019-04-25T02:05:56.503Z,100275.33
2019-04-25T02:08:25.923Z,100261.32
2019-04-25T02:10:59.009Z,100258.36
2019-04-25T02:13:27.706Z,100277.98
2019-04-25T02:15:57.105Z,100273.42
2019-04-25T02:18:25.902Z,100276.84
2019-04-25T02:20:57.564Z,100277.34
2019-04-25T02:23:24.408Z,100298.61
2019-04-25T02:26:06.764Z,100313.62
2019-04-25T02:28:24.018Z,100326.65
2019-04-25T02:30:54.743Z,100333.61
2019-04-25T02:33:24.222Z,100340.94
2019-04-25T02:35:54.336Z,100353.50
2019-04-25T02:38:24.328Z,100358.02
2019-04-25T02:40:56.203Z,100356.97
2019-04-25T02:43:23.955Z,100365.48
2019-04-25T02:46:10.657Z,100366.37
2019-04-25T02:48:50.032Z,100371.11
2019-04-25T02:51:35.143Z,100381.58
2019-04-25T02:54:06.734Z,100386.42
2019-04-25T02:56:38.256Z,100380.06
2019-04-25T02:59:06.986Z,100368.91
2019-04-25T03:01:34.584Z,100377.66
2019-04-25T03:04:07.450Z,100379.16
2019-04-25T03:06:35.051Z,100382.42
2019-04-25T03:09:06.466Z,100380.02
2019-04-25T03:11:34.899Z,100380.84
2019-04-25T03:14:06.345Z,100394.23
2019-04-25T03:16:34.770Z,100393.34
2019-04-25T03:19:09.025Z,100385.64
2019-04-25T03:21:39.504Z,100387.73
2019-04-25T03:24:10.218Z,100399.58
2019-04-25T03:26:40.626Z,100397.47
2019-04-25T03:29:09.311Z,100393.53
2019-04-25T03:31:37.870Z,100403.60
2019-04-25T03:34:10.251Z,100400.98
2019-04-25T03:36:36.486Z,100407.58
2019-04-25T03:39:07.124Z,100409.00
2019-04-25T03:41:35.603Z,100411.31
2019-04-25T03:44:05.192Z,100419.02
2019-04-25T03:46:34.433Z,100412.09
2019-04-25T03:49:04.936Z,100419.48
2019-04-25T03:51:33.838Z,100427.76
2019-04-25T03:54:04.766Z,100429.02
2019-04-25T03:56:33.368Z,100438.11
2019-04-25T03:59:04.821Z,100435.28
2019-04-25T04:01:34.200Z,100444.90
2019-04-25T04:04:04.584Z,100451.88
2019-04-25T04:06:34.190Z,100463.63
2019-04-25T04:09:04.674Z,100471.91
2019-04-25T04:11:33.721Z,100474.83
2019-04-25T04:14:04.023Z,100488.83
2019-04-25T04:16:36.503Z,100493.31
2019-04-25T04:19:06.745Z,100504.00
2019-04-25T04:21:46.061Z,100505.25
2019-04-25T04:24:16.159Z,100510.28
2019-04-25T04:26:46.199Z,100507.25
2019-04-25T04:29:15.286Z,100505.34
2019-04-25T04:31:43.912Z,100509.58
2019-04-25T04:34:14.338Z,100519.45
2019-04-25T04:36:43.711Z,100535.27
2019-04-25T04:39:13.853Z,100533.39
2019-04-25T04:41:43.640Z,100538.47
2019-04-25T04:44:12.238Z,100544.13
2019-04-25T04:46:40.688Z,100545.52
2019-04-25T04:49:09.083Z,100548.14
2019-04-25T04:51:37.445Z,100554.27
2019-04-25T04:54:06.361Z,100562.81
2019-04-25T04:56:35.254Z,100562.40
2019-04-25T04:59:03.796Z,100568.73
2019-04-25T05:01:34.098Z,100576.37
2019-04-25T05:04:06.809Z,100580.05
2019-04-25T05:06:53.714Z,100586.82
2019-04-25T05:09:23.717Z,100584.94
2019-04-25T05:11:54.030Z,100589.91
2019-04-25T05:14:24.273Z,100590.63
2019-04-25T05:16:53.309Z,100592.50
2019-04-25T05:19:22.415Z,100593.59
2019-04-25T05:21:53.595Z,100606.22
2019-04-25T05:24:24.589Z,100609.66
2019-04-25T05:26:53.898Z,100608.89
2019-04-25T05:29:24.127Z,100620.31
2019-04-25T05:31:54.302Z,100618.95
2019-04-25T05:34:24.686Z,100633.73
2019-04-25T05:36:53.901Z,100639.40
2019-04-25T05:39:24.043Z,100633.40
2019-04-25T05:42:00.679Z,100630.30
2019-04-25T05:44:29.133Z,100642.78
2019-04-25T05:46:57.525Z,100645.61
2019-04-25T05:49:26.360Z,100648.73
2019-04-25T05:51:55.067Z,100656.44
2019-04-25T05:54:24.782Z,100655.59
2019-04-25T05:56:53.839Z,100654.90
2019-04-25T05:59:22.274Z,100655.41
2019-04-25T06:01:50.797Z,100664.13
2019-04-25T06:04:19.343Z,100666.61
2019-04-25T06:06:47.717Z,100677.47
2019-04-25T06:09:29.631Z,100678.05
2019-04-25T06:12:14.581Z,100686.85
2019-04-25T06:14:43.432Z,100680.73
2019-04-25T06:17:13.782Z,100695.14
2019-04-25T06:19:43.858Z,100690.66
2019-04-25T06:22:16.909Z,100694.84
2019-04-25T06:24:47.020Z,100697.21
2019-04-25T06:27:17.390Z,100703.83
2019-04-25T06:29:57.735Z,100704.75
2019-04-25T06:32:17.730Z,100719.41
2019-04-25T06:34:46.173Z,100719.96
2019-04-25T06:37:14.630Z,100714.23
2019-04-25T06:39:44.218Z,100719.17
2019-04-25T06:42:13.832Z,100708.72
2019-04-25T06:44:56.282Z,100717.88
2019-04-25T06:47:35.049Z,100717.13
2019-04-25T06:50:04.654Z,100708.05
2019-04-25T06:52:35.307Z,100711.66
2019-04-25T06:55:03.931Z,100716.92
2019-04-25T06:57:34.009Z,100718.28
2019-04-25T07:00:04.414Z,100711.91
2019-04-25T07:02:35.025Z,100711.27
2019-04-25T07:05:04.698Z,100717.58
2019-04-25T07:07:35.042Z,100728.78
2019-04-25T07:10:04.193Z,100721.83
2019-04-25T07:12:34.460Z,100727.09
2019-04-25T07:15:05.313Z,100736.06
2019-04-25T07:17:34.993Z,100742.14
2019-04-25T07:20:06.236Z,100752.08
2019-04-25T07:22:35.419Z,100748.11
2019-04-25T07:25:06.096Z,100742.28
2019-04-25T07:27:39.415Z,100747.67
2019-04-25T07:30:31.594Z,100753.04
2019-04-25T07:32:57.946Z,100749.30
2019-04-25T07:35:26.805Z,100754.59
2019-04-25T07:37:55.252Z,100763.03
2019-04-25T07:40:25.589Z,100763.86
2019-04-25T07:42:54.174Z,100764.71
2019-04-25T07:45:23.954Z,100766.87
2019-04-25T07:47:54.153Z,100766.34
2019-04-25T07:50:23.864Z,100763.78
2019-04-25T07:52:53.856Z,100781.84
2019-04-25T07:55:23.340Z,100774.31
2019-04-25T07:57:53.304Z,100776.06
2019-04-25T08:00:24.048Z,100780.23
2019-04-25T08:02:54.176Z,100778.19
2019-04-25T08:05:24.174Z,100776.58
2019-04-25T08:07:55.496Z,100784.03
2019-04-25T08:10:25.764Z,100779.97
2019-04-25T08:12:54.272Z,100782.69
2019-04-25T08:15:33.854Z,100775.06
2019-04-25T08:18:07.821Z,100779.66
2019-04-25T08:20:37.065Z,100783.20
2019-04-25T08:23:06.889Z,100780.72
2019-04-25T08:25:37.659Z,100781.66
2019-04-25T08:28:05.637Z,100792.50
2019-04-25T08:30:35.427Z,100791.34
2019-04-25T08:33:04.934Z,100792.38
2019-04-25T08:35:34.276Z,100792.83
2019-04-25T08:38:05.775Z,100800.34
2019-04-25T08:40:35.725Z,100793.03
2019-04-25T08:43:04.872Z,100797.67
2019-04-25T08:45:35.280Z,100800.28
2019-04-25T08:48:03.739Z,100795.98
2019-04-25T08:50:40.792Z,100792.78
2019-04-25T08:53:09.716Z,100800.78
2019-04-25T08:55:44.061Z,100802.64
2019-04-25T08:58:17.272Z,100806.66
2019-04-25T09:01:00.873Z,100798.37
2019-04-25T09:03:32.329Z,100800.61
2019-04-25T09:06:03.364Z,100807.44
2019-04-25T09:08:33.027Z,100804.24
2019-04-25T09:11:03.463Z,100815.22
2019-04-25T09:13:33.033Z,100804.40
2019-04-25T09:16:03.606Z,100807.80
2019-04-25T09:18:34.717Z,100802.77
2019-04-25T09:21:03.912Z,100798.93
2019-04-25T09:23:34.433Z,100797.95
2019-04-25T09:26:04.011Z,100797.92
2019-04-25T09:28:34.749Z,100800.23
2019-04-25T09:31:03.955Z,100795.05
2019-04-25T09:33:34.138Z,100801.15
2019-04-25T09:36:02.700Z,100806.59
2019-04-25T09:38:35.670Z,100798.63
2019-04-25T09:41:04.591Z,100793.11
2019-04-25T09:43:33.539Z,100800.51
2019-04-25T09:46:03.755Z,100794.04
2019-04-25T09:48:40.309Z,100799.48
2019-04-25T09:51:13.552Z,100801.70
2019-04-25T09:53:49.037Z,100801.95
2019-04-25T09:56:18.462Z,100802.78
2019-04-25T09:58:53.946Z,100796.41
2019-04-25T10:01:24.036Z,100782.15
2019-04-25T10:03:54.278Z,100777.59
2019-04-25T10:06:23.421Z,100780.67
2019-04-25T10:08:52.238Z,100785.44
2019-04-25T10:11:20.817Z,100772.31
2019-04-25T10:14:14.890Z,100772.40
2019-04-25T10:16:45.617Z,100771.66
2019-04-25T10:19:15.874Z,100773.73
2019-04-25T10:21:45.221Z,100765.87
2019-04-25T10:24:15.457Z,100772.75
2019-04-25T10:26:45.220Z,100774.94
2019-04-25T10:29:14.575Z,100771.39
2019-04-25T10:31:44.313Z,100772.70
2019-04-25T10:34:14.127Z,100766.41
2019-04-25T10:36:46.786Z,100763.73
2019-04-25T10:39:15.713Z,100754.70
2019-04-25T10:41:46.077Z,100753.23
2019-04-25T10:44:14.365Z,100758.88
2019-04-25T10:46:45.677Z,100759.48
2019-04-25T10:49:14.544Z,100751.86
2019-04-25T10:51:45.745Z,100757.80
2019-04-25T10:54:17.199Z,100747.39
2019-04-25T10:56:47.066Z,100747.06
2019-04-25T10:59:15.993Z,100744.53
2019-04-25T11:01:46.011Z,100741.34
2019-04-25T11:04:16.559Z,100743.78
2019-04-25T11:06:45.557Z,100742.13
2019-04-25T11:09:18.322Z,100738.23
2019-04-25T11:11:46.766Z,100736.27
2019-04-25T11:14:15.212Z,100737.52
2019-04-25T11:16:46.522Z,100721.69
2019-04-25T11:19:15.550Z,100721.36
2019-04-25T11:21:46.621Z,100722.89
2019-04-25T11:24:15.575Z,100729.28
2019-04-25T11:26:47.135Z,100728.20
2019-04-25T11:29:15.076Z,100716.58
2019-04-25T11:31:46.991Z,100726.74
2019-04-25T11:34:16.822Z,100716.59
2019-04-25T11:36:45.693Z,100728.70
2019-04-25T11:39:25.489Z,100726.13
2019-04-25T11:41:55.577Z,100722.06
2019-04-25T11:44:24.596Z,100719.59
2019-04-25T11:46:53.497Z,100712.38
2019-04-25T11:49:24.825Z,100712.80
2019-04-25T11:51:56.421Z,100705.84
2019-04-25T11:54:27.116Z,100710.72
2019-04-25T11:56:56.451Z,100706.56
2019-04-25T11:59:25.236Z,100701.17
2019-04-25T12:01:57.299Z,100713.16
2019-04-25T12:04:25.066Z,100703.66
2019-04-25T12:06:53.706Z,100711.53
2019-04-25T12:09:23.946Z,100706.26
2019-04-25T12:11:54.319Z,100709.69
2019-04-25T12:14:23.583Z,100712.92
2019-04-25T12:16:55.749Z,100705.35
2019-04-25T12:19:34.575Z,100707.61
2019-04-25T12:21:56.739Z,100694.53
2019-04-25T12:24:24.050Z,100698.90
2019-04-25T12:26:54.737Z,100700.98
2019-04-25T12:29:24.321Z,100700.17
2019-04-25T12:31:54.617Z,100702.38
2019-04-25T12:34:24.283Z,100695.61
2019-04-25T12:36:54.314Z,100692.22
2019-04-25T12:39:24.251Z,100697.48
2019-04-25T12:41:54.477Z,100694.37
2019-04-25T12:44:24.804Z,100689.84
2019-04-25T12:46:55.649Z,100692.77
2019-04-25T12:49:24.601Z,100688.18
2019-04-25T12:51:53.043Z,100686.80
2019-04-25T12:54:21.533Z,100682.61
2019-04-25T12:56:49.881Z,100689.37
2019-04-25T12:59:18.463Z,100684.66
2019-04-25T13:01:46.976Z,100683.80
2019-04-25T13:04:15.474Z,100682.76
2019-04-25T13:06:43.880Z,100679.83
2019-04-25T13:09:12.564Z,100671.45
2019-04-25T13:11:40.959Z,100668.72
2019-04-25T13:14:09.676Z,100663.36
2019-04-25T13:16:38.919Z,100665.56
2019-04-25T13:19:16.442Z,100673.30
2019-04-25T13:21:38.807Z,100665.70
2019-04-25T13:24:07.256Z,100679.41
2019-04-25T13:26:37.267Z,100670.42
2019-04-25T13:29:10.171Z,100660.98
2019-04-25T13:31:44.330Z,100664.24
2019-04-25T13:34:14.601Z,100659.52
2019-04-25T13:36:44.288Z,100653.28
2019-04-25T13:39:16.171Z,100662.78
2019-04-25T13:41:44.888Z,100659.44
2019-04-25T13:44:14.237Z,100658.33
2019-04-25T13:46:43.346Z,100657.69
2019-04-25T13:49:12.060Z,100650.36
2019-04-25T13:51:40.459Z,100649.34
2019-04-25T13:54:09.299Z,100655.58
2019-04-25T13:56:40.512Z,100652.80
2019-04-25T13:59:08.807Z,100655.56
2019-04-25T14:01:37.408Z,100653.42
2019-04-25T14:04:07.132Z,100643.39
2019-04-25T14:06:35.589Z,100638.55
2019-04-25T14:09:07.295Z,100636.70
2019-04-25T14:11:36.059Z,100634.84
2019-04-25T14:14:04.915Z,100630.66
2019-04-25T14:16:34.997Z,100630.78
2019-04-25T14:19:10.608Z,100632.08
2019-04-25T14:21:39.413Z,100635.80
2019-04-25T14:24:19.640Z,100630.34
2019-04-25T14:26:43.466Z,100628.91
2019-04-25T14:29:11.858Z,100629.78
2019-04-25T14:31:45.645Z,100624.45
2019-04-25T14:34:10.427Z,100624.91
2019-04-25T14:36:38.882Z,100620.41
2019-04-25T14:39:08.722Z,100613.83
2019-04-25T14:41:37.162Z,100612.88
2019-04-25T14:44:05.614Z,100621.71
2019-04-25T14:46:34.009Z,100614.01
2019-04-25T14:49:02.688Z,100612.46
2019-04-25T14:51:31.063Z,100606.61
2019-04-25T14:54:01.356Z,100611.93
2019-04-25T14:56:32.432Z,100605.47
2019-04-25T14:59:01.092Z,100601.30
2019-04-25T15:01:30.196Z,100594.25
2019-04-25T15:03:58.710Z,100596.81
2019-04-25T15:06:27.689Z,100596.86
2019-04-25T15:08:56.548Z,100599.76
2019-04-25T15:11:24.941Z,100600.50
2019-04-25T15:13:53.828Z,100598.34
2019-04-25T15:16:23.393Z,100601.28
2019-04-25T15:18:51.984Z,100596.30
2019-04-25T15:21:20.701Z,100591.16
2019-04-25T15:23:59.686Z,100592.28
2019-04-25T15:26:19.359Z,100586.30
2019-04-25T15:28:47.805Z,100583.36
2019-04-25T15:31:16.296Z,100583.70
2019-04-25T15:33:44.753Z,100582.19
2019-04-25T15:36:17.243Z,100582.05
2019-04-25T15:38:47.335Z,100578.16
2019-04-25T15:41:33.482Z,100570.88
2019-04-25T15:44:03.545Z,100572.17
2019-04-25T15:46:36.135Z,100579.63
2019-04-25T15:49:04.798Z,100580.28
2019-04-25T15:51:33.416Z,100577.50
2019-04-25T15:54:01.960Z,100571.73
2019-04-25T15:56:30.808Z,100572.34
2019-04-25T15:59:01.207Z,100572.37
2019-04-25T16:01:30.345Z,100564.69
2019-04-25T16:03:58.933Z,100570.23
2019-04-25T16:06:27.858Z,100560.65
2019-04-25T16:08:56.301Z,100567.77
2019-04-25T16:11:26.522Z,100564.52
2019-04-25T16:13:55.397Z,100558.97
2019-04-25T16:16:23.843Z,100563.41
2019-04-25T16:18:52.663Z,100564.59
2019-04-25T16:21:21.244Z,100559.11
2019-04-25T16:23:49.639Z,100556.72
2019-04-25T16:26:18.415Z,100557.41
2019-04-25T16:28:47.207Z,100553.52
2019-04-25T16:31:17.391Z,100557.47
2019-04-25T16:33:46.226Z,100558.66
2019-04-25T16:36:14.974Z,100551.05
2019-04-25T16:38:43.499Z,100554.38
2019-04-25T16:41:12.688Z,100554.69
2019-04-25T16:43:43.150Z,100553.60
2019-04-25T16:46:12.951Z,100548.18
2019-04-25T16:48:41.718Z,100548.73
2019-04-25T16:51:10.170Z,100556.11
2019-04-25T16:53:38.642Z,100559.42
2019-04-25T16:56:07.365Z,100556.42
2019-04-25T16:58:36.001Z,100550.95
2019-04-25T17:01:08.961Z,100554.27
2019-04-25T17:03:37.866Z,100553.45
2019-04-25T17:06:06.642Z,100552.39
2019-04-25T17:08:35.737Z,100549.17
2019-04-25T17:11:04.940Z,100546.44
2019-04-25T17:13:35.883Z,100550.56
2019-04-25T17:16:11.756Z,100548.92
2019-04-25T17:18:44.983Z,100546.73
2019-04-25T17:21:13.800Z,100549.73
2019-04-25T17:23:43.722Z,100547.86
2019-04-25T17:26:13.805Z,100551.10
2019-04-25T17:28:43.886Z,100552.22
2019-04-25T17:31:32.481Z,100552.77
2019-04-25T17:34:05.296Z,100547.86
2019-04-25T17:36:38.652Z,100548.67
2019-04-25T17:39:25.303Z,100554.40
2019-04-25T17:41:53.758Z,100555.22
2019-04-25T17:44:22.469Z,100546.75
2019-04-25T17:46:50.960Z,100543.23
2019-04-25T17:49:19.316Z,100554.44
2019-04-25T17:51:47.793Z,100553.88
2019-04-25T17:54:18.346Z,100552.53
2019-04-25T17:56:46.726Z,100547.37
2019-04-25T17:59:15.254Z,100547.89
2019-04-25T18:01:44.279Z,100551.73
2019-04-25T18:04:12.872Z,100546.27
2019-04-25T18:06:42.093Z,100547.64
2019-04-25T18:09:11.236Z,100553.65
2019-04-25T18:11:40.209Z,100548.75
2019-04-25T18:14:08.966Z,100553.92
2019-04-25T18:16:42.679Z,100558.52
2019-04-25T18:19:15.671Z,100551.72
2019-04-25T18:21:45.002Z,100555.25
2019-04-25T18:24:31.486Z,100548.16
2019-04-25T18:27:19.606Z,100550.91
2019-04-25T18:29:48.401Z,100556.08
2019-04-25T18:32:16.961Z,100551.70
2019-04-25T18:35:01.923Z,100551.95
2019-04-25T18:37:47.177Z,100560.13
2019-04-25T18:40:23.400Z,100556.59
2019-04-25T18:42:53.495Z,100556.03
2019-04-25T18:45:26.441Z,100553.56
2019-04-25T18:47:54.880Z,100554.64
2019-04-25T18:50:24.998Z,100555.98
2019-04-25T18:52:55.097Z,100555.99
2019-04-25T18:55:27.836Z,100557.35
2019-04-25T18:58:15.091Z,100563.61
2019-04-25T19:00:48.184Z,100554.05
2019-04-25T19:03:27.056Z,100562.74
2019-04-25T19:05:57.227Z,100559.97
2019-04-25T19:08:28.391Z,100552.59
2019-04-25T19:11:00.156Z,100557.50
2019-04-25T19:13:28.706Z,100552.86
2019-04-25T19:15:57.329Z,100552.01
2019-04-25T19:18:26.152Z,100554.23
2019-04-25T19:20:55.397Z,100550.13
2019-04-25T19:23:24.342Z,100552.00
2019-04-25T19:25:52.894Z,100555.27
2019-04-25T19:28:21.416Z,100553.33
2019-04-25T19:30:50.176Z,100556.05
2019-04-25T19:33:19.089Z,100555.72
2019-04-25T19:35:47.910Z,100560.58
2019-04-25T19:38:19.993Z,100557.56
2019-04-25T19:40:53.756Z,100554.28
2019-04-25T19:43:30.224Z,100553.46
2019-04-25T19:45:59.370Z,100555.61
2019-04-25T19:48:28.657Z,100554.72
2019-04-25T19:50:57.557Z,100558.20
2019-04-25T19:53:37.703Z,100566.59
2019-04-25T19:56:06.223Z,100560.05
2019-04-25T19:58:39.074Z,100563.31
2019-04-25T20:01:07.912Z,100566.82
2019-04-25T20:03:52.269Z,100569.52
2019-04-25T20:06:24.392Z,100566.73
2019-04-25T20:09:09.710Z,100562.63
2019-04-25T20:11:49.350Z,100562.66
2019-04-25T20:14:17.935Z,100564.49
2019-04-25T20:16:47.576Z,100566.39
2019-04-25T20:19:16.366Z,100561.48
2019-04-25T20:21:45.759Z,100560.10
2019-04-25T20:24:14.193Z,100560.32
2019-04-25T20:26:42.812Z,100553.84
2019-04-25T20:29:11.243Z,100555.14
2019-04-25T20:31:40.137Z,100557.03
2019-04-25T20:34:08.687Z,100553.74
2019-04-25T20:36:37.562Z,100549.64
2019-04-25T20:39:07.411Z,100547.39
2019-04-25T20:41:38.667Z,100546.81
2019-04-25T20:44:07.411Z,100549.75
2019-04-25T20:46:35.871Z,100541.31
2019-04-25T20:49:04.464Z,100542.39
2019-04-25T20:51:32.994Z,100545.39
2019-04-25T20:54:01.463Z,100542.06
2019-04-25T20:56:29.992Z,100538.77
2019-04-25T20:58:58.572Z,100540.62
2019-04-25T21:01:30.074Z,100535.16
2019-04-25T21:03:58.754Z,100537.30
2019-04-25T21:06:30.020Z,100530.77
2019-04-25T21:08:58.979Z,100531.83
2019-04-25T21:11:27.491Z,100524.18
2019-04-25T21:14:03.617Z,100529.37
2019-04-25T21:16:50.414Z,100525.83
2019-04-25T21:19:26.694Z,100526.61
2019-04-25T21:21:55.119Z,100524.68
2019-04-25T21:24:23.887Z,100519.50
2019-04-25T21:26:52.719Z,100521.67
2019-04-25T21:29:21.365Z,100521.14
2019-04-25T21:31:51.195Z,100518.13
2019-04-25T21:34:25.918Z,100517.03
2019-04-25T21:36:49.996Z,100512.63
2019-04-25T21:39:27.473Z,100514.52
2019-04-25T21:42:07.317Z,100509.02
2019-04-25T21:44:36.034Z,100509.50
2019-04-25T21:47:04.609Z,100507.03
2019-04-25T21:49:36.561Z,100510.08
2019-04-25T21:52:05.036Z,100513.36
2019-04-25T21:54:33.684Z,100511.14
2019-04-25T21:57:02.630Z,100504.81
2019-04-25T21:59:31.470Z,100502.05
2019-04-25T22:02:00.248Z,100499.55
2019-04-25T22:04:38.777Z,100496.00
2019-04-25T22:06:59.072Z,100492.62
2019-04-25T22:09:27.886Z,100493.45
2019-04-25T22:11:57.360Z,100493.75
2019-04-25T22:14:26.196Z,100493.12
2019-04-25T22:16:55.466Z,100494.72
2019-04-25T22:19:24.311Z,100488.37
2019-04-25T22:21:53.145Z,100487.85
2019-04-25T22:24:22.079Z,100489.16
2019-04-25T22:26:52.403Z,100489.92
2019-04-25T22:29:21.177Z,100500.58
2019-04-25T22:31:51.511Z,100494.95
2019-04-25T22:34:21.899Z,100495.48
2019-04-25T22:36:50.318Z,100493.16
2019-04-25T22:39:18.843Z,100493.34
2019-04-25T22:41:48.627Z,100489.81
2019-04-25T22:44:19.864Z,100492.62
2019-04-25T22:46:48.527Z,100491.45
2019-04-25T22:49:17.051Z,100492.70
2019-04-25T22:51:45.575Z,100497.53
2019-04-25T22:54:14.467Z,100498.31
2019-04-25T22:56:42.934Z,100495.23
2019-04-25T22:59:11.678Z,100497.38
2019-04-25T23:01:41.786Z,100488.95
2019-04-25T23:04:23.886Z,100492.72
2019-04-25T23:06:52.418Z,100490.77
2019-04-25T23:09:20.990Z,100487.82
2019-04-25T23:11:49.663Z,100482.86
2019-04-25T23:14:18.480Z,100479.55
2019-04-25T23:16:47.140Z,100470.23
2019-04-25T23:19:15.590Z,100467.72
2019-04-25T23:21:44.278Z,100465.30
2019-04-25T23:24:14.180Z,100466.88
2019-04-25T23:27:00.931Z,100469.30
2019-04-25T23:29:29.484Z,100455.75
2019-04-25T23:31:57.922Z,100450.80
2019-04-25T23:34:26.811Z,100453.99
2019-04-25T23:36:55.290Z,100452.92
2019-04-25T23:39:24.266Z,100453.94
2019-04-25T23:41:52.714Z,100459.36
2019-04-25T23:44:21.224Z,100451.21
2019-04-25T23:46:49.903Z,100452.52
2019-04-25T23:49:18.328Z,100451.67
2019-04-25T23:51:47.085Z,100450.22
2019-04-25T23:54:17.194Z,100451.38
2019-04-25T23:56:45.757Z,100443.26
2019-04-25T23:59:15.644Z,100439.14
